Aviation Digital Data Service (ADDS)

Output produced by METARs form (2312 UTC 21 December 2014)
found at http://aviationweather.gov/adds/metars/
 
KCAR 211749Z 2118/2218 22005KT P6SM SCT007 OVC015 
     FM212000 VRB03KT P6SM SCT007 OVC025 
     FM212300 VRB03KT P6SM SCT015 BKN035 
     FM220300 VRB03KT P6SM -SN SCT007 OVC020 
     FM220800 00000KT 5SM BR SCT006 OVC015